CPX784 Details

Departure: Incheon International Airport (RKSI)
Arrival: Tan Son Nhat International Airport (VVTS)
Route: BOPTA1K BOPTA Z51 BEDES Y711 MUGUS Y742 SALMI Q11 DRAKE Q11 TACLE Q12 KABAM N892 MESOX Q15 CRA W2 PTH BAOMY1F


Current Weather Information
RKSI 200900Z 11006KT 080V140 3000 -RA BR FEW015 BKN030 OVC080 10/07 Q1006 NOSIG
VVTS 200900Z 15009KT 120V180 9999 SCT017 FEW020CB 32/21 Q1008 NOSIG